Time;durP1;ratioP1;P1;durP2;ratioP2;P2;SDS_P1;SDS_P2;PMS_P1;PMS_P2;Temp;Humidity;BMP_temperature;BMP_pressure;BME280_temperature;BME280_humidity;BME280_pressure;Samples;Min_cycle;Max_cycle;Signal;HPM_P1;HPM_P2
2022/05/18 00:02:24;;;;;;;8.05;3.03;;;18.50;99.90;;;;;;5026370;28;20026;-59
2022/05/18 00:04:50;;;;;;;8.23;3.28;;;18.50;99.90;;;;;;5019623;28;20117;-60
2022/05/18 00:07:16;;;;;;;5.18;2.47;;;18.30;99.90;;;;;;5017034;28;20113;-59
2022/05/18 00:09:42;;;;;;;4.68;2.45;;;18.20;99.90;;;;;;5021776;28;20061;-59
2022/05/18 00:12:08;;;;;;;7.13;2.80;;;18.10;99.90;;;;;;5030988;28;20045;-59
2022/05/18 00:14:35;;;;;;;6.90;3.35;;;18.10;99.90;;;;;;4983968;28;20045;-58
2022/05/18 00:17:03;;;;;;;6.82;3.05;;;18.10;99.90;;;;;;5022915;28;20041;-59
2022/05/18 00:19:29;;;;;;;4.32;2.45;;;18.00;99.90;;;;;;5021034;28;20032;-59
2022/05/18 00:21:55;;;;;;;5.30;2.28;;;18.00;99.90;;;;;;5020660;28;20033;-59
2022/05/18 00:24:21;;;;;;;5.07;2.58;;;18.00;99.90;;;;;;5022181;28;20044;-60
2022/05/18 00:26:46;;;;;;;5.95;3.10;;;18.00;99.90;;;;;;5031782;28;20025;-61
2022/05/18 00:29:12;;;;;;;6.93;2.95;;;18.00;99.90;;;;;;5029951;28;20025;-60
2022/05/18 00:31:37;;;;;;;9.55;3.15;;;18.00;99.90;;;;;;5031035;28;20045;-59
2022/05/18 00:34:03;;;;;;;5.75;3.75;;;18.00;99.90;;;;;;5028992;28;20045;-60
2022/05/18 00:36:28;;;;;;;5.63;3.13;;;18.10;99.90;;;;;;5034022;28;20404;-61
2022/05/18 00:38:54;;;;;;;4.57;2.70;;;18.20;99.90;;;;;;5036797;28;20040;-60
2022/05/18 00:41:22;;;;;;;6.43;2.85;;;18.20;99.90;;;;;;5026010;28;20103;-60
2022/05/18 00:43:50;;;;;;;6.82;2.97;;;18.20;99.90;;;;;;5028669;28;20509;-60
2022/05/18 00:46:15;;;;;;;5.13;2.88;;;18.20;99.90;;;;;;5019015;28;20034;-59
2022/05/18 00:48:42;;;;;;;7.32;2.60;;;18.30;99.90;;;;;;5033263;28;20079;-60
2022/05/18 00:51:28;;;;;;;8.15;3.22;;;18.30;99.90;;;;;;5022589;28;20029;-60
2022/05/18 00:54:02;;;;;;;7.90;3.45;;;18.30;99.90;;;;;;5026387;28;20042;-59
2022/05/18 00:56:50;;;;;;;8.43;3.72;;;18.30;99.90;;;;;;5028396;28;20368;-59
2022/05/18 00:59:20;;;;;;;4.18;2.50;;;18.30;99.90;;;;;;5029818;28;20036;-60
2022/05/18 01:01:47;;;;;;;7.78;3.00;;;18.20;99.90;;;;;;5020593;28;20034;-61
2022/05/18 01:04:15;;;;;;;4.82;2.83;;;18.20;99.90;;;;;;5020788;28;20498;-58
2022/05/18 01:07:06;;;;;;;4.10;2.28;;;18.20;99.90;;;;;;5019951;28;20394;-60
2022/05/18 01:09:40;;;;;;;6.88;2.78;;;18.10;99.90;;;;;;5020898;28;20033;-59
2022/05/18 01:12:08;;;;;;;5.88;3.35;;;18.10;99.90;;;;;;5017776;28;20029;-60
2022/05/18 01:14:43;;;;;;;8.05;3.45;;;18.10;99.90;;;;;;5021002;28;20556;-59
2022/05/18 01:17:11;;;;;;;8.25;3.30;;;18.10;99.90;;;;;;5018498;28;20088;-60
2022/05/18 01:19:58;;;;;;;3.58;2.90;;;18.10;99.90;;;;;;5025440;28;20048;-60
2022/05/18 01:22:32;;;;;;;8.57;3.13;;;18.00;99.90;;;;;;5016886;28;20030;-59
2022/05/18 01:25:19;;;;;;;4.80;2.67;;;18.00;99.90;;;;;;5022897;28;20040;-60
2022/05/18 01:27:45;;;;;;;4.55;2.58;;;18.00;99.90;;;;;;5025372;28;20036;-59
2022/05/18 01:30:12;;;;;;;6.93;2.88;;;18.00;99.90;;;;;;5025310;28;20037;-60
2022/05/18 01:32:41;;;;;;;4.88;2.88;;;17.90;99.90;;;;;;5028421;28;20034;-59
2022/05/18 01:35:08;;;;;;;6.68;2.90;;;17.90;99.90;;;;;;5022031;28;20038;-59
2022/05/18 01:37:34;;;;;;;5.88;2.85;;;17.80;99.90;;;;;;5031920;28;20120;-59
2022/05/18 01:40:08;;;;;;;5.13;2.45;;;17.80;99.90;;;;;;5027758;28;20336;-59
2022/05/18 01:42:36;;;;;;;;;;;17.70;99.90;;;;;;5031874;28;20572;-58
2022/05/18 01:45:02;;;;;;;5.68;2.95;;;17.70;99.90;;;;;;5027979;28;19963;-60
2022/05/18 01:47:35;;;;;;;7.22;3.40;;;17.70;99.90;;;;;;5013537;28;20116;-59
2022/05/18 01:50:03;;;;;;;6.38;2.70;;;17.70;99.90;;;;;;5031640;28;20045;-59
2022/05/18 01:52:29;;;;;;;10.05;3.13;;;17.70;99.90;;;;;;5023345;28;20037;-59
2022/05/18 01:54:54;;;;;;;6.57;2.80;;;17.60;99.90;;;;;;5021636;28;20034;-60
2022/05/18 01:57:20;;;;;;;6.13;3.25;;;17.60;99.90;;;;;;5029030;28;20399;-59
2022/05/18 01:59:45;;;;;;;10.23;3.10;;;17.50;99.90;;;;;;5029642;28;20380;-59
2022/05/18 02:02:12;;;;;;;5.22;2.78;;;17.50;99.90;;;;;;5029666;28;20037;-59
2022/05/18 02:04:39;;;;;;;7.72;3.40;;;17.50;99.90;;;;;;5029422;28;20041;-59
2022/05/18 02:07:05;;;;;;;6.63;2.80;;;17.40;99.90;;;;;;5021195;28;20025;-57
2022/05/18 02:09:30;;;;;;;9.45;2.97;;;17.40;99.90;;;;;;5031572;28;20537;-60
2022/05/18 02:11:57;;;;;;;5.18;2.75;;;17.30;99.90;;;;;;5024956;28;20037;-61
2022/05/18 02:14:23;;;;;;;5.60;2.92;;;17.20;99.90;;;;;;5029889;28;20029;-59
2022/05/18 02:16:49;;;;;;;8.63;3.45;;;17.20;99.90;;;;;;5044945;28;20028;-60
2022/05/18 02:19:16;;;;;;;4.45;3.15;;;17.20;99.90;;;;;;5036171;28;20030;-59
2022/05/18 02:21:42;;;;;;;7.82;3.33;;;17.10;99.90;;;;;;5010271;28;20060;-59
2022/05/18 02:24:08;;;;;;;5.00;2.92;;;17.00;99.90;;;;;;5025581;28;20491;-60
2022/05/18 02:26:33;;;;;;;4.63;3.28;;;16.90;99.90;;;;;;5026047;28;20120;-58
2022/05/18 02:28:59;;;;;;;9.93;3.38;;;16.80;99.90;;;;;;5024790;28;20509;-59
2022/05/18 02:31:24;;;;;;;6.18;3.72;;;16.80;99.90;;;;;;5028382;28;20155;-59
2022/05/18 02:33:50;;;;;;;8.57;3.65;;;16.80;99.90;;;;;;5031223;28;20081;-58
2022/05/18 02:36:16;;;;;;;5.45;3.40;;;16.80;99.90;;;;;;5030763;28;20596;-59
2022/05/18 02:38:42;;;;;;;10.13;4.60;;;16.70;99.90;;;;;;5030926;28;20036;-59
2022/05/18 02:41:09;;;;;;;8.43;3.30;;;16.70;99.90;;;;;;5030427;28;20116;-59
2022/05/18 02:43:38;;;;;;;3.40;2.83;;;16.60;99.90;;;;;;5030759;28;20022;-59
2022/05/18 02:46:16;;;;;;;7.25;3.20;;;16.60;99.90;;;;;;5025811;28;20022;-58
2022/05/18 02:48:42;;;;;;;6.82;3.67;;;16.50;99.90;;;;;;5018487;28;20033;-58
2022/05/18 02:51:09;;;;;;;4.80;3.13;;;16.60;99.90;;;;;;5022792;28;20040;-59
2022/05/18 02:53:34;;;;;;;8.68;4.03;;;16.60;99.90;;;;;;5017980;28;20630;-58
2022/05/18 02:56:07;;;;;;;9.13;3.20;;;16.50;99.90;;;;;;5024573;28;20116;-57
2022/05/18 02:58:37;;;;;;;5.88;3.50;;;16.50;99.90;;;;;;5026426;28;20087;-59
2022/05/18 03:01:05;;;;;;;6.78;3.38;;;16.50;99.90;;;;;;5025661;28;20093;-59
2022/05/18 03:03:31;;;;;;;5.43;4.18;;;16.50;99.90;;;;;;5028491;28;20048;-60
2022/05/18 03:05:57;;;;;;;9.90;3.42;;;16.50;99.90;;;;;;5018840;28;20029;-60
2022/05/18 03:08:22;;;;;;;5.82;3.40;;;16.40;99.90;;;;;;5035857;28;20021;-59
2022/05/18 03:10:48;;;;;;;5.40;3.28;;;16.50;99.90;;;;;;5024278;28;20029;-60
2022/05/18 03:13:14;;;;;;;6.10;3.55;;;16.40;99.90;;;;;;5027511;28;20429;-60
2022/05/18 03:15:39;;;;;;;5.50;3.45;;;16.40;99.90;;;;;;5029917;28;20021;-58
2022/05/18 03:18:05;;;;;;;6.07;3.83;;;16.40;99.90;;;;;;5029982;28;20115;-59
2022/05/18 03:23:33;;;;;;;6.28;3.25;;;16.30;99.90;;;;;;5024372;28;20088;-58
2022/05/18 03:25:59;;;;;;;8.45;2.75;;;16.30;99.90;;;;;;5027655;28;20021;-60
2022/05/18 03:28:25;;;;;;;5.80;3.55;;;16.30;99.90;;;;;;5029907;28;20052;-58
2022/05/18 03:30:50;;;;;;;5.50;2.88;;;16.20;99.90;;;;;;5012008;28;20119;-59
2022/05/18 03:33:16;;;;;;;5.80;2.67;;;16.20;99.90;;;;;;5025134;28;20117;-59
2022/05/18 03:35:42;;;;;;;7.65;4.10;;;16.20;99.90;;;;;;5023913;28;20042;-59
2022/05/18 03:38:07;;;;;;;5.53;3.25;;;16.20;99.90;;;;;;5025983;28;20032;-58
2022/05/18 03:40:38;;;;;;;5.00;3.38;;;16.20;99.90;;;;;;5027633;28;20100;-58
2022/05/18 03:43:04;;;;;;;9.02;3.90;;;16.30;99.90;;;;;;5025498;28;20040;-59
2022/05/18 03:45:31;;;;;;;18.13;5.03;;;16.30;99.90;;;;;;5013059;28;20097;-58
2022/05/18 03:47:57;;;;;;;8.57;3.08;;;16.30;99.90;;;;;;5021673;28;20029;-60
2022/05/18 03:50:23;;;;;;;7.35;3.65;;;16.30;99.90;;;;;;5024659;28;20132;-60
2022/05/18 03:52:48;;;;;;;6.63;3.35;;;16.40;99.90;;;;;;5019660;28;20026;-59
2022/05/18 03:55:14;;;;;;;7.35;3.65;;;16.40;99.90;;;;;;5028359;28;20112;-58
2022/05/18 03:57:39;;;;;;;7.40;3.63;;;16.40;99.90;;;;;;5027654;28;20450;-59
2022/05/18 04:00:06;;;;;;;8.43;3.22;;;16.50;99.90;;;;;;5026179;28;20128;-59
2022/05/18 04:02:33;;;;;;;7.03;3.78;;;16.60;99.90;;;;;;5026002;28;20041;-59
2022/05/18 04:04:59;;;;;;;5.57;3.20;;;16.60;99.90;;;;;;5028230;28;20022;-59
2022/05/18 04:07:25;;;;;;;6.97;2.97;;;16.70;99.90;;;;;;5029794;28;20045;-57
2022/05/18 04:09:51;;;;;;;7.00;3.05;;;16.80;99.90;;;;;;5027082;28;20061;-57
2022/05/18 04:12:16;;;;;;;6.57;3.65;;;16.80;99.90;;;;;;5028613;28;20030;-57
2022/05/18 04:14:42;;;;;;;8.70;3.47;;;16.90;99.90;;;;;;5028330;28;20112;-57
2022/05/18 04:17:07;;;;;;;6.80;2.97;;;17.00;99.90;;;;;;5025986;28;20041;-59
2022/05/18 04:19:33;;;;;;;8.63;3.78;;;17.10;99.90;;;;;;5027074;28;20482;-59
2022/05/18 04:21:58;;;;;;;5.90;3.13;;;17.30;99.90;;;;;;5021732;28;20037;-56
2022/05/18 04:24:24;;;;;;;7.68;3.67;;;17.40;99.90;;;;;;5027564;28;20034;-60
2022/05/18 04:26:50;;;;;;;8.07;3.38;;;17.50;99.90;;;;;;5025958;28;20087;-59
2022/05/18 04:29:15;;;;;;;7.55;3.17;;;17.70;99.90;;;;;;5021399;28;20065;-60
2022/05/18 04:31:41;;;;;;;6.35;3.67;;;17.80;99.90;;;;;;5026859;28;20458;-59
2022/05/18 04:34:07;;;;;;;11.27;3.55;;;17.90;99.90;;;;;;5016842;28;20593;-63
2022/05/18 04:36:33;;;;;;;7.93;3.35;;;18.20;99.90;;;;;;5019528;28;20033;-57
2022/05/18 04:38:58;;;;;;;7.65;3.03;;;18.60;99.90;;;;;;5018083;28;20029;-56
2022/05/18 04:41:24;;;;;;;10.55;3.33;;;19.00;99.90;;;;;;5018854;28;20539;-59
2022/05/18 04:43:49;;;;;;;5.82;2.85;;;19.70;99.90;;;;;;5026737;28;20060;-60
2022/05/18 04:46:15;;;;;;;4.57;2.40;;;20.60;99.90;;;;;;5024163;28;20022;-58
2022/05/18 04:48:41;;;;;;;4.55;2.50;;;21.60;99.90;;;;;;5027357;28;20041;-58
2022/05/18 04:51:06;;;;;;;5.07;2.08;;;22.70;97.50;;;;;;5023981;28;20475;-56
2022/05/18 04:53:36;;;;;;;7.28;2.30;;;23.40;95.90;;;;;;5022445;28;20395;-56
2022/05/18 04:56:03;;;;;;;5.07;2.33;;;23.50;95.60;;;;;;5019147;28;20038;-59
2022/05/18 04:58:29;;;;;;;6.88;2.05;;;24.00;94.50;;;;;;5026652;28;20040;-58
2022/05/18 05:01:01;;;;;;;6.88;2.30;;;24.70;92.60;;;;;;5022715;28;20021;-58
2022/05/18 05:03:27;;;;;;;6.18;2.65;;;24.80;92.40;;;;;;5030863;28;20091;-57
2022/05/18 05:05:53;;;;;;;6.40;2.67;;;25.00;91.00;;;;;;5028881;28;20491;-57
2022/05/18 05:08:19;;;;;;;4.28;2.33;;;25.50;90.00;;;;;;5032000;28;20637;-58
2022/05/18 05:10:44;;;;;;;6.25;2.15;;;24.90;90.10;;;;;;5024506;28;20483;-58
2022/05/18 05:13:10;;;;;;;9.15;2.60;;;24.70;89.90;;;;;;5032720;28;20032;-57
2022/05/18 05:15:36;;;;;;;4.90;2.58;;;23.80;91.30;;;;;;5027847;28;20056;-58
2022/05/18 05:18:01;;;;;;;5.75;2.35;;;23.20;93.30;;;;;;5031890;28;20033;-58
2022/05/18 05:20:27;;;;;;;4.75;2.63;;;23.50;93.30;;;;;;5029841;28;20049;-58
2022/05/18 05:22:52;;;;;;;4.18;2.03;;;23.80;92.40;;;;;;5027643;28;20060;-59
2022/05/18 05:25:18;;;;;;;6.90;2.50;;;24.80;91.10;;;;;;5025772;28;20034;-58
2022/05/18 05:27:44;;;;;;;5.07;2.38;;;25.60;90.40;;;;;;5032230;28;20029;-59
2022/05/18 05:30:11;;;;;;;3.65;2.30;;;26.80;85.30;;;;;;5031592;28;20034;-58
2022/05/18 05:32:36;;;;;;;5.40;2.25;;;27.40;82.20;;;;;;5032206;28;20112;-58
2022/05/18 05:35:02;;;;;;;4.97;2.25;;;27.90;82.70;;;;;;5017451;28;20129;-59
2022/05/18 05:37:28;;;;;;;4.53;2.15;;;28.80;78.70;;;;;;5031572;28;20063;-59
2022/05/18 05:39:55;;;;;;;5.78;2.10;;;28.90;75.60;;;;;;5028686;28;21274;-55
2022/05/18 05:42:21;;;;;;;6.07;2.80;;;28.30;76.10;;;;;;5025111;28;20040;-58
2022/05/18 05:44:46;;;;;;;5.57;2.88;;;27.20;77.20;;;;;;5024188;28;20033;-59
2022/05/18 05:47:12;;;;;;;4.53;2.40;;;26.60;79.60;;;;;;5031050;28;20483;-58
2022/05/18 05:49:39;;;;;;;2.80;2.35;;;25.70;82.40;;;;;;5026400;28;20538;-57
2022/05/18 05:52:06;;;;;;;5.57;2.10;;;25.00;85.40;;;;;;5025889;28;20501;-59
2022/05/18 05:54:33;;;;;;;6.43;3.00;;;24.30;89.20;;;;;;5028456;28;20057;-58
2022/05/18 05:56:58;;;;;;;3.67;2.10;;;23.60;89.80;;;;;;5022830;28;20034;-57
2022/05/18 05:59:24;;;;;;;8.57;2.85;;;22.90;91.80;;;;;;5027064;28;20033;-58
2022/05/18 06:01:49;;;;;;;4.30;2.40;;;22.90;92.80;;;;;;5019856;28;20028;-57
2022/05/18 06:04:15;;;;;;;8.90;3.08;;;22.80;93.00;;;;;;5030910;28;20026;-58
2022/05/18 06:06:41;;;;;;;5.95;2.65;;;22.70;93.10;;;;;;5029522;28;20030;-58
2022/05/18 06:09:09;;;;;;;5.95;2.65;;;22.60;93.40;;;;;;5021468;28;20032;-58
2022/05/18 06:11:36;;;;;;;5.78;2.40;;;22.40;94.30;;;;;;5021862;28;20036;-57
2022/05/18 06:14:02;;;;;;;6.88;2.42;;;22.50;93.80;;;;;;5028071;28;20087;-58
2022/05/18 06:16:28;;;;;;;7.57;2.40;;;23.20;94.40;;;;;;5021482;28;20151;-59
2022/05/18 06:18:54;;;;;;;8.80;2.65;;;24.30;92.90;;;;;;5025820;28;20486;-58
2022/05/18 06:21:19;;;;;;;4.90;2.20;;;25.20;90.40;;;;;;5022613;28;20023;-58
2022/05/18 06:23:45;;;;;;;4.78;2.40;;;25.40;88.30;;;;;;5024502;28;20053;-57
2022/05/18 06:26:10;;;;;;;5.18;2.65;;;26.00;88.50;;;;;;5017773;28;20503;-57
2022/05/18 06:28:36;;;;;;;7.70;2.58;;;26.80;86.30;;;;;;5024931;28;20025;-58
2022/05/18 06:31:03;;;;;;;5.47;2.20;;;27.50;82.80;;;;;;5026268;28;20502;-58
2022/05/18 06:33:29;;;;;;;5.03;2.72;;;28.90;81.60;;;;;;5028096;28;20384;-59
2022/05/18 06:35:54;;;;;;;9.90;2.45;;;30.00;77.90;;;;;;5018532;28;20084;-59
2022/05/18 06:38:20;;;;;;;6.85;2.58;;;30.20;73.80;;;;;;5007198;28;20089;-58
2022/05/18 06:43:30;;;;;;;5.90;2.40;;;29.10;74.90;;;;;;5028451;28;20060;-57
2022/05/18 06:45:57;;;;;;;2.90;1.70;;;29.60;75.40;;;;;;5019824;28;20403;-54
2022/05/18 06:48:23;;;;;;;5.18;2.50;;;30.10;74.20;;;;;;5029042;28;20033;-58
2022/05/18 06:50:48;;;;;;;5.40;1.90;;;30.60;71.00;;;;;;5029492;28;20037;-58
2022/05/18 06:53:14;;;;;;;3.85;2.08;;;31.30;72.20;;;;;;5027529;28;20030;-58
2022/05/18 06:55:39;;;;;;;4.95;1.98;;;32.20;68.70;;;;;;5020892;28;20029;-59
2022/05/18 06:58:05;;;;;;;4.40;2.00;;;32.20;68.70;;;;;;5026552;28;20048;-59
2022/05/18 07:00:30;;;;;;;3.55;1.83;;;32.70;65.50;;;;;;5025680;28;20041;-59
2022/05/18 07:02:56;;;;;;;4.28;1.95;;;32.80;64.70;;;;;;5028523;28;20029;-59
2022/05/18 07:05:22;;;;;;;3.95;2.28;;;33.60;65.20;;;;;;5023548;28;20030;-59
2022/05/18 07:07:47;;;;;;;7.10;1.88;;;33.30;64.60;;;;;;5028978;28;20021;-57
2022/05/18 07:10:13;;;;;;;9.52;2.50;;;33.30;63.60;;;;;;5021159;28;20065;-59
2022/05/18 07:12:39;;;;;;;7.82;2.53;;;33.20;63.80;;;;;;5021123;28;20029;-59
2022/05/18 07:15:05;;;;;;;4.93;1.85;;;34.20;62.20;;;;;;5020864;28;20034;-60
2022/05/18 07:17:31;;;;;;;4.57;2.33;;;34.80;63.30;;;;;;5024567;28;20195;-59
2022/05/18 07:19:57;;;;;;;5.88;2.20;;;35.20;61.50;;;;;;5027759;28;20052;-57
2022/05/18 07:22:22;;;;;;;5.68;2.50;;;36.50;60.90;;;;;;5021915;28;20099;-59
2022/05/18 07:24:49;;;;;;;5.65;1.83;;;35.70;59.90;;;;;;5025764;28;20029;-60
2022/05/18 07:27:15;;;;;;;3.38;1.92;;;35.90;61.10;;;;;;5029910;28;20033;-59
2022/05/18 07:29:41;;;;;;;3.47;2.20;;;36.60;57.70;;;;;;5026759;28;20040;-59
2022/05/18 07:32:13;;;;;;;8.65;2.10;;;37.30;57.20;;;;;;5021841;28;20034;-59
2022/05/18 07:34:39;;;;;;;;;;;37.30;56.40;;;;;;5024877;28;20051;-59
2022/05/18 07:37:05;;;;;;;3.33;2.08;;;36.20;57.90;;;;;;5023985;28;20039;-59
2022/05/18 07:39:32;;;;;;;4.47;2.42;;;37.10;56.80;;;;;;5014654;28;20411;-57
2022/05/18 07:42:01;;;;;;;4.35;2.10;;;37.10;55.10;;;;;;5021023;28;20047;-56
2022/05/18 07:44:27;;;;;;;7.18;2.05;;;36.90;55.00;;;;;;5025720;28;20226;-59
2022/05/18 07:46:53;;;;;;;3.03;2.08;;;36.90;56.10;;;;;;5024816;28;20436;-59
2022/05/18 07:49:19;;;;;;;5.65;1.73;;;36.70;54.70;;;;;;5009318;28;20029;-59
2022/05/18 07:51:46;;;;;;;4.13;2.72;;;36.40;55.80;;;;;;5019620;28;20027;-59
2022/05/18 07:54:14;;;;;;;3.90;2.20;;;36.70;56.30;;;;;;5026404;28;20048;-59
2022/05/18 07:56:41;;;;;;;6.25;1.98;;;37.10;54.80;;;;;;5018517;28;20029;-59
2022/05/18 07:59:08;;;;;;;5.40;2.30;;;36.80;54.20;;;;;;5021585;28;20036;-59
2022/05/18 08:01:36;;;;;;;5.00;2.15;;;36.90;53.50;;;;;;5018799;28;20037;-59
2022/05/18 08:04:04;;;;;;;2.05;1.75;;;36.80;53.40;;;;;;5027121;28;20660;-59
2022/05/18 08:06:30;;;;;;;6.47;2.65;;;36.80;53.80;;;;;;5026076;28;20026;-59
2022/05/18 08:08:56;;;;;;;5.20;1.98;;;36.80;53.20;;;;;;5029518;28;20080;-59
2022/05/18 08:16:50;;;;;;;4.82;2.30;;;36.20;52.50;;;;;;5021451;28;20048;-59
2022/05/18 08:19:17;;;;;;;4.05;1.70;;;35.60;54.80;;;;;;5024910;28;20021;-60
2022/05/18 08:21:42;;;;;;;8.65;1.90;;;35.90;53.80;;;;;;5020938;28;20022;-58
2022/05/18 08:24:08;;;;;;;5.50;1.85;;;36.50;53.60;;;;;;5027941;28;20368;-58
2022/05/18 08:26:34;;;;;;;4.57;1.90;;;36.50;53.80;;;;;;5028690;28;20032;-58
2022/05/18 08:29:02;;;;;;;5.22;2.22;;;36.10;53.50;;;;;;5029352;28;20022;-59
2022/05/18 08:31:28;;;;;;;4.22;1.58;;;34.80;55.30;;;;;;5030447;28;20030;-59
2022/05/18 08:33:53;;;;;;;2.72;1.67;;;34.20;56.60;;;;;;5032167;28;20017;-60
2022/05/18 08:36:20;;;;;;;5.30;1.85;;;34.70;55.70;;;;;;5019724;28;20475;-59
2022/05/18 08:38:46;;;;;;;6.35;2.63;;;34.80;55.70;;;;;;5020904;28;20033;-59
2022/05/18 08:41:22;;;;;;;4.40;2.28;;;35.70;54.80;;;;;;5021046;28;20040;-60
2022/05/18 08:43:52;;;;;;;3.90;1.80;;;35.80;55.70;;;;;;5026747;28;20032;-59
2022/05/18 08:46:29;;;;;;;4.40;1.98;;;35.90;55.00;;;;;;5030109;28;20013;-60
2022/05/18 08:49:10;;;;;;;4.22;2.28;;;35.90;56.10;;;;;;5032023;28;20487;-60
2022/05/18 08:52:13;;;;;;;6.63;2.20;;;36.50;54.80;;;;;;5031035;28;20065;-59
2022/05/18 08:54:42;;;;;;;4.07;2.78;;;36.80;52.90;;;;;;5030388;28;20108;-57
2022/05/18 08:57:33;;;;;;;7.40;2.20;;;36.90;53.20;;;;;;5022219;28;20025;-60
2022/05/18 09:00:08;;;;;;;5.50;2.10;;;36.70;54.40;;;;;;5027115;28;20034;-55
2022/05/18 09:02:35;;;;;;;5.28;1.65;;;36.40;53.80;;;;;;5030720;28;20399;-60
2022/05/18 09:05:07;;;;;;;4.53;1.73;;;36.00;52.70;;;;;;5023515;28;20026;-60
2022/05/18 09:07:38;;;;;;;3.40;2.00;;;36.20;53.70;;;;;;5025521;28;20761;-60
2022/05/18 09:10:12;;;;;;;4.45;1.95;;;36.50;52.30;;;;;;5027546;28;20570;-60
2022/05/18 09:12:47;;;;;;;4.15;1.65;;;35.60;51.70;;;;;;5022744;28;20030;-60
2022/05/18 09:15:16;;;;;;;5.03;2.42;;;35.60;55.40;;;;;;5027798;28;20411;-59
2022/05/18 09:18:17;;;;;;;2.72;1.58;;;35.80;53.60;;;;;;5022092;28;20029;-62
2022/05/18 09:20:58;;;;;;;3.53;1.70;;;36.40;54.90;;;;;;4980612;28;20121;-60
2022/05/18 09:23:53;;;;;;;8.38;2.08;;;36.50;52.30;;;;;;5024879;28;20037;-60
2022/05/18 09:26:45;;;;;;;5.03;2.08;;;36.10;53.80;;;;;;5013626;28;20045;-60
2022/05/18 09:29:14;;;;;;;5.97;2.38;;;35.70;51.40;;;;;;5019544;28;20117;-60
2022/05/18 09:31:58;;;;;;;5.53;2.25;;;36.70;52.00;;;;;;5028601;28;20025;-60
2022/05/18 09:34:48;;;;;;;3.90;1.80;;;36.60;51.20;;;;;;5026853;28;20034;-60
2022/05/18 09:37:37;;;;;;;3.17;1.45;;;36.60;54.20;;;;;;5029389;28;20025;-60
2022/05/18 09:40:24;;;;;;;2.88;1.40;;;36.80;51.90;;;;;;5021685;28;20131;-59
2022/05/18 09:42:58;;;;;;;6.13;1.80;;;36.70;50.70;;;;;;5025415;28;20124;-60
2022/05/18 09:45:29;;;;;;;4.60;1.52;;;36.50;50.20;;;;;;5026959;28;20029;-60
2022/05/18 09:48:03;;;;;;;3.17;1.67;;;37.10;50.70;;;;;;5030963;28;20021;-60
2022/05/18 09:50:28;;;;;;;4.65;1.65;;;37.00;50.90;;;;;;5015349;28;20170;-60
2022/05/18 09:52:55;;;;;;;4.97;2.03;;;36.40;50.40;;;;;;5018366;28;20124;-60
2022/05/18 09:55:25;;;;;;;4.10;1.67;;;35.90;52.10;;;;;;5027974;28;20508;-59
2022/05/18 09:58:06;;;;;;;3.60;1.70;;;36.20;51.20;;;;;;5021760;28;20491;-60
2022/05/18 10:00:34;;;;;;;3.25;1.70;;;36.20;50.00;;;;;;5023914;28;20030;-58
2022/05/18 10:08:46;;;;;;;4.63;1.80;;;34.80;52.80;;;;;;5021943;28;20393;-59
2022/05/18 10:11:18;;;;;;;2.80;1.40;;;34.70;51.30;;;;;;5022279;28;20030;-58
2022/05/18 10:13:54;;;;;;;5.57;1.38;;;34.30;51.80;;;;;;5033343;28;20048;-59
2022/05/18 10:16:31;;;;;;;9.82;1.85;;;33.70;50.20;;;;;;5022617;28;20103;-58
2022/05/18 10:18:59;;;;;;;3.17;1.40;;;33.40;53.20;;;;;;5025983;28;20078;-59
2022/05/18 10:21:30;;;;;;;4.45;1.52;;;33.20;52.80;;;;;;5021540;28;20123;-58
2022/05/18 10:24:03;;;;;;;6.95;1.38;;;32.90;52.50;;;;;;5034668;28;20053;-58
2022/05/18 10:26:34;;;;;;;;;;;32.50;51.60;;;;;;5026368;28;20526;-57
2022/05/18 10:29:07;;;;;;;2.70;1.48;;;32.30;51.90;;;;;;5028754;28;19916;-58
2022/05/18 10:31:40;;;;;;;2.65;1.25;;;32.50;55.10;;;;;;5024826;28;20030;-56
2022/05/18 10:34:22;;;;;;;3.70;1.52;;;32.50;53.60;;;;;;5022274;28;20041;-57
2022/05/18 10:36:51;;;;;;;1.98;1.27;;;32.30;51.20;;;;;;5024952;28;20080;-58
2022/05/18 10:39:31;;;;;;;2.25;1.10;;;32.40;52.10;;;;;;5024563;28;20040;-58
2022/05/18 10:41:57;;;;;;;4.93;1.92;;;32.30;52.60;;;;;;5015323;28;20021;-57
2022/05/18 10:44:32;;;;;;;3.92;1.30;;;31.90;52.30;;;;;;5029591;28;20031;-58
2022/05/18 10:47:26;;;;;;;4.75;1.50;;;32.10;52.90;;;;;;5024077;28;20021;-58
2022/05/18 10:49:53;;;;;;;2.75;1.17;;;31.80;50.90;;;;;;5009432;28;20033;-58
2022/05/18 10:52:30;;;;;;;5.47;1.35;;;31.90;52.40;;;;;;5029490;28;20053;-59
2022/05/18 10:54:59;;;;;;;7.45;1.50;;;32.20;55.40;;;;;;5022775;28;20048;-57
2022/05/18 10:57:38;;;;;;;7.60;1.65;;;32.00;51.90;;;;;;5007844;28;20455;-58
2022/05/18 11:00:07;;;;;;;2.55;1.20;;;31.80;52.00;;;;;;5022272;28;20029;-58
2022/05/18 11:03:03;;;;;;;5.22;1.45;;;31.70;52.20;;;;;;5022020;28;20017;-58
2022/05/18 11:05:47;;;;;;;2.50;1.42;;;31.90;53.80;;;;;;5023537;28;20458;-57
2022/05/18 11:08:17;;;;;;;2.83;1.30;;;31.70;53.10;;;;;;5028577;28;20025;-54
2022/05/18 11:10:54;;;;;;;4.85;1.60;;;31.60;54.50;;;;;;5027353;28;20029;-58
2022/05/18 11:13:24;;;;;;;4.00;1.50;;;31.60;52.60;;;;;;5021577;28;20463;-58
2022/05/18 11:16:04;;;;;;;2.33;1.30;;;31.60;53.50;;;;;;5026592;28;20088;-59
2022/05/18 11:18:54;;;;;;;2.65;1.23;;;31.50;53.20;;;;;;5031928;28;20037;-57
2022/05/18 11:21:37;;;;;;;2.20;1.30;;;31.30;52.60;;;;;;5024851;28;20049;-58
2022/05/18 11:24:30;;;;;;;3.28;1.55;;;31.10;53.30;;;;;;5023462;28;20131;-57
2022/05/18 11:26:56;;;;;;;3.97;1.30;;;30.80;52.80;;;;;;5021798;28;20021;-59
2022/05/18 11:29:48;;;;;;;5.97;1.20;;;30.40;53.80;;;;;;5039924;28;20037;-59
2022/05/18 11:32:26;;;;;;;3.17;1.45;;;30.40;54.40;;;;;;5024232;28;20494;-58
2022/05/18 11:35:06;;;;;;;3.67;1.30;;;30.40;53.20;;;;;;5031845;28;20079;-59
2022/05/18 11:37:37;;;;;;;2.35;1.40;;;30.40;54.90;;;;;;5020268;28;20440;-59
2022/05/18 11:40:22;;;;;;;4.22;1.75;;;30.40;55.80;;;;;;5027519;28;20065;-58
2022/05/18 11:43:28;;;;;;;2.72;1.50;;;30.40;53.90;;;;;;5009592;28;20395;-59
2022/05/18 11:46:05;;;;;;;2.08;1.30;;;30.50;54.80;;;;;;5033711;28;20049;-59
2022/05/18 11:48:56;;;;;;;4.07;1.42;;;30.50;55.00;;;;;;5023997;28;20574;-59
2022/05/18 11:51:46;;;;;;;3.92;1.42;;;30.50;55.40;;;;;;5022700;28;20044;-59
2022/05/18 11:54:50;;;;;;;2.90;1.33;;;30.50;55.00;;;;;;5029607;28;20025;-59
2022/05/18 11:57:36;;;;;;;;;;;30.60;54.20;;;;;;5022888;28;20045;-59
2022/05/18 12:00:14;;;;;;;2.50;1.30;;;30.60;54.50;;;;;;4986325;28;19928;-55
2022/05/18 12:03:12;;;;;;;2.33;1.20;;;30.60;54.30;;;;;;5022593;28;20040;-60
2022/05/18 12:05:47;;;;;;;2.97;1.23;;;30.50;53.40;;;;;;5025044;28;20621;-59
2022/05/18 12:08:27;;;;;;;3.40;1.45;;;30.30;54.50;;;;;;5037341;28;20037;-58
2022/05/18 12:11:21;;;;;;;2.15;1.25;;;30.30;53.60;;;;;;5031316;28;20121;-58
2022/05/18 12:14:01;;;;;;;3.20;1.45;;;30.20;54.30;;;;;;5025482;28;20502;-58
2022/05/18 12:16:39;;;;;;;3.10;1.40;;;30.20;54.40;;;;;;5021902;28;20055;-60
2022/05/18 12:19:22;;;;;;;5.43;1.42;;;30.20;54.80;;;;;;5038677;28;20105;-55
2022/05/18 12:21:54;;;;;;;1.83;1.40;;;30.10;54.20;;;;;;5024326;28;20017;-58
2022/05/18 12:24:20;;;;;;;5.68;1.48;;;30.10;53.60;;;;;;5030037;28;20069;-55
2022/05/18 12:26:47;;;;;;;2.13;1.25;;;30.00;54.30;;;;;;5032108;28;20025;-58
2022/05/18 12:29:18;;;;;;;7.13;1.50;;;30.10;55.50;;;;;;5034253;28;20025;-59
2022/05/18 12:31:44;;;;;;;3.30;1.33;;;29.90;54.80;;;;;;5032082;28;20064;-57
2022/05/18 12:34:12;;;;;;;2.55;1.20;;;29.90;54.20;;;;;;5031619;28;20091;-60
2022/05/18 12:37:03;;;;;;;5.47;1.20;;;30.00;54.20;;;;;;5029897;28;20033;-60
2022/05/18 12:39:46;;;;;;;5.63;1.20;;;30.10;54.10;;;;;;5033310;28;20033;-59
2022/05/18 12:42:15;;;;;;;;;;;30.00;55.20;;;;;;5033638;28;20041;-59
2022/05/18 12:44:49;;;;;;;5.65;1.10;;;30.00;55.10;;;;;;5041083;28;19909;-60
2022/05/18 12:47:22;;;;;;;2.13;1.20;;;30.00;54.60;;;;;;5041712;28;20021;-59
2022/05/18 12:49:56;;;;;;;1.48;1.08;;;30.00;52.30;;;;;;5032833;28;20025;-59
2022/05/18 12:52:39;;;;;;;6.40;1.25;;;29.90;51.80;;;;;;5041258;28;20116;-60
2022/05/18 12:55:29;;;;;;;3.05;1.17;;;29.80;53.70;;;;;;5040564;28;20487;-59
2022/05/18 12:58:04;;;;;;;3.70;1.10;;;29.70;53.80;;;;;;5037164;28;20091;-59
2022/05/18 13:00:30;;;;;;;5.03;1.27;;;29.70;53.10;;;;;;5026303;28;20109;-58
2022/05/18 13:03:19;;;;;;;2.58;0.98;;;29.80;53.20;;;;;;5023485;28;20014;-59
2022/05/18 13:05:54;;;;;;;3.65;1.10;;;29.70;53.00;;;;;;5014727;28;20049;-59
2022/05/18 13:08:19;;;;;;;1.75;1.10;;;29.70;53.40;;;;;;5029674;28;20096;-58
2022/05/18 13:11:19;;;;;;;1.65;0.98;;;29.60;54.50;;;;;;5034741;28;20151;-59
2022/05/18 13:14:04;;;;;;;3.17;1.30;;;29.60;54.10;;;;;;5033269;28;20064;-59
2022/05/18 13:16:39;;;;;;;2.35;1.00;;;29.70;54.40;;;;;;5027446;28;20022;-59
2022/05/18 13:19:14;;;;;;;3.75;1.50;;;29.70;54.20;;;;;;5038367;28;20033;-59
2022/05/18 13:21:45;;;;;;;4.15;1.60;;;29.70;54.60;;;;;;5032584;28;20037;-59
2022/05/18 13:24:15;;;;;;;5.65;1.30;;;29.70;54.90;;;;;;5026449;28;20037;-59